CheckWX is a tool to help pilots better visualize weather data.  It is not intended as a substitute for an official pre-flight weather briefing.

00:32:22 UTC

ESUP METAR
Pajala Airport
Sweden
Current

12 mins ago

ESUP 170020Z AUTO 01005KT 340V050 9999 // FEW017/// OVC049/// 04/02 Q0998
Observed
Sep-17 @ 00:20 UTC
Wind
  • 010° at 5 KTS
Visibility
10,000+ meters
Flight Rules
VFR
Cloud Levels
  • Few at 1,700' AGL
  • Overcast at 4,900' AGL
Temperature
C / 39°F
Dewpoint
C / 36°F
Humidity
87%
Altimeter
29.47" Hg
Pressure
997.92 hPa
Previous

42 mins ago

ESUP 162350Z AUTO 01004KT 9999 FEW032/// OVC050/// 04/02 Q////
Observed
Sep-16 @ 23:50 UTC
Wind
  • 010° at 4 KTS
Visibility
10,000+ meters
Flight Rules
VFR
Cloud Levels
  • Few at 3,200' AGL
  • Overcast at 5,000' AGL
Temperature
C / 39°F
Dewpoint
C / 36°F
Humidity
87%
Previous

1 hour ago

ESUP 162320Z AUTO 02003KT 330V060 9999 OVC047/// 03/02 Q////
Observed
Sep-16 @ 23:20 UTC
Wind
  • 020° at 3 KTS
Visibility
10,000+ meters
Flight Rules
VFR
Cloud Levels
  • Overcast at 4,700' AGL
Temperature
C / 37°F
Dewpoint
C / 36°F
Humidity
93%